createdAt,value
2023-09-27T00:04:54.064Z,14.20
2023-09-27T00:09:57.166Z,13.40
2023-09-27T00:15:03.070Z,13.40
2023-09-27T00:20:10.854Z,15.30
2023-09-27T00:25:15.490Z,15.50
2023-09-27T00:30:18.479Z,17.00
2023-09-27T00:35:23.775Z,16.40
2023-09-27T00:40:27.922Z,19.10
2023-09-27T00:45:31.187Z,19.40
2023-09-27T00:50:34.046Z,18.70
2023-09-27T00:55:37.216Z,18.00
2023-09-27T01:00:40.462Z,18.50
2023-09-27T01:05:43.697Z,17.50
2023-09-27T01:10:47.455Z,17.10
2023-09-27T01:15:50.530Z,17.40
2023-09-27T01:20:53.358Z,19.40
2023-09-27T01:26:01.139Z,17.80
2023-09-27T01:31:04.148Z,18.80
2023-09-27T01:36:07.930Z,19.90
2023-09-27T01:41:10.706Z,18.30
2023-09-27T01:46:13.515Z,18.00
2023-09-27T01:51:16.432Z,19.30
2023-09-27T01:56:19.239Z,18.50
2023-09-27T02:01:22.106Z,21.30
2023-09-27T02:06:25.042Z,19.80
2023-09-27T02:11:27.976Z,23.10
2023-09-27T02:16:32.924Z,22.90
2023-09-27T02:21:35.666Z,20.70
2023-09-27T02:26:38.588Z,19.90
2023-09-27T02:31:41.379Z,17.70
2023-09-27T02:36:44.194Z,21.30
2023-09-27T02:41:46.897Z,21.80
2023-09-27T02:46:50.054Z,22.20
2023-09-27T02:51:55.352Z,25.00
2023-09-27T02:56:58.208Z,25.70
2023-09-27T03:02:00.989Z,24.20
2023-09-27T03:07:04.294Z,21.90
2023-09-27T03:12:08.054Z,24.90
2023-09-27T03:17:11.402Z,24.30
2023-09-27T03:22:14.302Z,23.70
2023-09-27T03:27:18.154Z,22.30
2023-09-27T03:32:21.310Z,23.00
2023-09-27T03:37:24.687Z,22.50
2023-09-27T03:42:28.101Z,23.60
2023-09-27T03:47:31.080Z,22.70
2023-09-27T03:52:34.104Z,24.10
2023-09-27T03:57:36.902Z,24.20
2023-09-27T04:02:39.767Z,24.80
2023-09-27T04:07:42.942Z,22.40
2023-09-27T04:12:45.758Z,24.00
2023-09-27T04:17:48.519Z,24.50
2023-09-27T04:22:51.416Z,25.00
2023-09-27T04:27:54.835Z,24.70
2023-09-27T04:32:57.615Z,24.70
2023-09-27T04:38:00.608Z,26.90
2023-09-27T04:43:03.670Z,24.90
2023-09-27T04:48:07.310Z,26.50
2023-09-27T04:53:11.050Z,26.30
2023-09-27T04:58:13.808Z,26.60
2023-09-27T05:03:16.632Z,24.20
2023-09-27T05:08:19.646Z,25.90
2023-09-27T05:13:22.954Z,26.20
2023-09-27T05:18:25.902Z,27.10
2023-09-27T05:23:28.925Z,26.30
2023-09-27T05:28:33.621Z,27.30
2023-09-27T05:33:36.492Z,26.40
2023-09-27T05:38:40.014Z,25.80
2023-09-27T05:43:42.989Z,27.40
2023-09-27T05:48:45.957Z,26.90
2023-09-27T05:53:53.688Z,30.40
2023-09-27T05:59:00.858Z,29.40
2023-09-27T06:04:04.996Z,27.90
2023-09-27T06:09:11.364Z,27.80
2023-09-27T06:14:15.370Z,27.40
2023-09-27T06:19:18.122Z,30.70
2023-09-27T06:24:20.901Z,31.10
2023-09-27T06:29:23.712Z,31.50
2023-09-27T06:34:27.509Z,26.20
2023-09-27T06:39:30.394Z,28.00
2023-09-27T06:44:35.353Z,27.70
2023-09-27T06:49:38.386Z,26.90
2023-09-27T06:54:42.063Z,24.70
2023-09-27T06:59:45.258Z,25.40
2023-09-27T07:04:48.977Z,25.90
2023-09-27T07:09:52.141Z,24.20
2023-09-27T07:14:54.866Z,22.80
2023-09-27T07:19:57.976Z,24.30
2023-09-27T07:25:02.930Z,23.20
2023-09-27T07:30:06.689Z,21.60
2023-09-27T07:35:11.658Z,22.30
2023-09-27T07:40:15.889Z,20.40
2023-09-27T07:45:23.584Z,21.20
2023-09-27T07:50:34.932Z,22.80
2023-09-27T07:55:44.639Z,22.60
2023-09-27T08:00:47.750Z,19.50
2023-09-27T08:05:50.807Z,21.40
2023-09-27T08:10:54.211Z,20.40
2023-09-27T08:15:57.183Z,19.70
2023-09-27T08:21:04.949Z,20.40
2023-09-27T08:26:13.773Z,21.40
2023-09-27T08:31:19.236Z,20.60
2023-09-27T08:36:22.178Z,20.60
2023-09-27T08:41:31.146Z,21.30
2023-09-27T08:46:37.428Z,20.50
2023-09-27T08:51:43.708Z,18.00
2023-09-27T08:56:55.236Z,19.50
2023-09-27T09:01:58.911Z,20.80
2023-09-27T09:07:04.603Z,17.80
2023-09-27T09:12:11.099Z,17.60
2023-09-27T09:17:19.346Z,17.40
2023-09-27T09:22:31.896Z,17.90
2023-09-27T09:27:35.577Z,16.30
2023-09-27T09:32:52.972Z,16.30
2023-09-27T09:37:56.698Z,15.30
2023-09-27T09:43:01.268Z,15.00
2023-09-27T09:48:05.080Z,16.40
2023-09-27T09:53:11.403Z,14.30
2023-09-27T09:58:37.173Z,13.60
2023-09-27T10:03:48.984Z,13.70
2023-09-27T10:08:53.254Z,10.70
2023-09-27T10:13:56.943Z,11.00
2023-09-27T10:19:02.938Z,10.90
2023-09-27T10:24:09.196Z,9.30
2023-09-27T10:34:29.323Z,9.60
2023-09-27T10:39:34.292Z,9.50
2023-09-27T10:49:43.234Z,8.80
2023-09-27T10:54:48.915Z,9.60
2023-09-27T10:59:53.843Z,8.80
2023-09-27T11:04:57.333Z,8.40
2023-09-27T11:10:02.751Z,8.70
2023-09-27T11:15:06.976Z,8.20
2023-09-27T11:20:14.165Z,8.30
2023-09-27T11:30:33.688Z,8.10
2023-09-27T11:35:51.677Z,8.60
2023-09-27T11:40:55.397Z,8.20
2023-09-27T11:46:00.863Z,8.30
2023-09-27T11:51:06.478Z,8.50
2023-09-27T11:56:12.003Z,7.60
2023-09-27T12:01:15.928Z,8.30
2023-09-27T12:06:20.629Z,8.10
2023-09-27T12:11:26.846Z,7.60
2023-09-27T12:16:33.497Z,7.50
2023-09-27T12:21:37.337Z,7.90
2023-09-27T12:26:42.558Z,7.60
2023-09-27T12:41:53.903Z,6.40
2023-09-27T12:46:56.907Z,5.90
2023-09-27T12:51:59.878Z,6.50
2023-09-27T13:12:11.621Z,9.10
2023-09-27T13:17:14.366Z,8.00
2023-09-27T13:22:17.360Z,8.50
2023-09-27T13:27:20.339Z,8.10
2023-09-27T14:57:42.040Z,8.00
2023-09-27T15:02:44.837Z,7.80
2023-09-27T15:07:47.737Z,6.80
2023-09-27T15:12:50.808Z,7.00
2023-09-27T15:17:53.702Z,7.60
2023-09-27T15:22:56.574Z,7.40
2023-09-27T15:28:00.849Z,6.90
2023-09-27T15:33:03.900Z,7.00
2023-09-27T15:38:06.996Z,7.60
2023-09-27T15:43:10.821Z,7.00
2023-09-27T15:48:13.693Z,7.90
2023-09-27T15:53:16.779Z,10.70
2023-09-27T15:58:19.727Z,9.10
2023-09-27T16:03:22.928Z,8.20
2023-09-27T16:08:28.410Z,7.70
2023-09-27T16:13:31.553Z,7.80
2023-09-27T16:25:12.926Z,8.60
2023-09-27T16:30:34.601Z,9.00
2023-09-27T16:35:38.620Z,8.30
2023-09-27T16:40:41.794Z,8.50
2023-09-27T16:45:45.050Z,8.40
2023-09-27T16:50:48.137Z,8.20
2023-09-27T16:55:51.304Z,8.10
2023-09-27T17:00:56.737Z,8.20
2023-09-27T17:05:59.829Z,8.70
2023-09-27T17:11:02.952Z,9.00
2023-09-27T17:16:08.634Z,10.00
2023-09-27T17:21:11.701Z,9.60
2023-09-27T17:26:14.808Z,11.50
2023-09-27T17:31:17.987Z,10.60
2023-09-27T17:36:21.028Z,10.10
2023-09-27T17:41:24.033Z,9.40
2023-09-27T17:46:28.927Z,10.00
2023-09-27T17:51:32.988Z,9.40
2023-09-27T17:56:36.159Z,10.20
2023-09-27T18:01:40.206Z,10.50
2023-09-27T18:06:43.427Z,11.00
2023-09-27T18:11:46.352Z,10.80
2023-09-27T18:16:49.287Z,11.00
2023-09-27T18:21:52.148Z,11.00
2023-09-27T18:26:55.744Z,10.60
2023-09-27T18:32:01.035Z,10.70
2023-09-27T18:37:04.404Z,11.30
2023-09-27T18:42:07.274Z,10.70
2023-09-27T18:47:10.469Z,11.50
2023-09-27T18:52:14.378Z,11.90
2023-09-27T18:57:17.107Z,12.60
2023-09-27T19:02:19.852Z,12.90
2023-09-27T19:07:23.675Z,11.90
2023-09-27T19:12:26.371Z,12.70
2023-09-27T19:17:29.093Z,12.70
2023-09-27T19:22:33.414Z,12.30
2023-09-27T19:27:36.181Z,11.10
2023-09-27T19:32:39.318Z,11.70
2023-09-27T19:37:42.755Z,11.60
2023-09-27T19:42:47.943Z,13.30
2023-09-27T19:47:51.373Z,12.80
2023-09-27T19:52:54.397Z,13.60
2023-09-27T19:57:57.478Z,12.90
2023-09-27T20:03:00.311Z,13.40
2023-09-27T20:08:03.431Z,12.20
2023-09-27T20:13:06.312Z,13.70
2023-09-27T20:18:09.137Z,11.90
2023-09-27T20:23:11.904Z,12.40
2023-09-27T20:28:14.790Z,12.00
2023-09-27T20:33:18.345Z,12.60
2023-09-27T20:38:21.050Z,11.40
2023-09-27T20:43:23.851Z,11.50
2023-09-27T20:48:26.763Z,12.60
2023-09-27T20:53:29.517Z,12.00
2023-09-27T20:58:32.930Z,13.00
2023-09-27T21:03:36.683Z,13.00
2023-09-27T21:08:39.573Z,12.60
2023-09-27T21:13:42.309Z,12.70
2023-09-27T21:18:45.166Z,13.20
2023-09-27T21:23:47.968Z,13.60
2023-09-27T21:28:50.966Z,13.60
2023-09-27T21:33:54.050Z,14.20
2023-09-27T21:38:57.041Z,13.50
2023-09-27T21:44:00.092Z,13.60
2023-09-27T21:49:02.907Z,12.70
2023-09-27T21:54:05.776Z,13.20
2023-09-27T21:59:09.511Z,14.50
2023-09-27T22:04:12.378Z,14.00
2023-09-27T22:09:15.225Z,12.90
2023-09-27T22:14:21.039Z,12.30
2023-09-27T22:19:29.037Z,13.30
2023-09-27T22:24:32.284Z,14.40
2023-09-27T22:29:35.081Z,14.20
2023-09-27T22:34:38.875Z,14.20
2023-09-27T22:39:41.851Z,13.10
2023-09-27T22:44:45.025Z,12.60
2023-09-27T22:49:47.801Z,14.30
2023-09-27T22:54:50.677Z,14.90
2023-09-27T22:59:54.927Z,14.30
2023-09-27T23:04:58.047Z,14.40
2023-09-27T23:10:04.606Z,13.60
2023-09-27T23:15:10.221Z,13.30
2023-09-27T23:20:13.107Z,15.00
2023-09-27T23:25:34.813Z,14.70
2023-09-27T23:30:51.080Z,13.80
2023-09-27T23:35:54.247Z,13.90
2023-09-27T23:41:00.574Z,14.60
2023-09-27T23:46:07.095Z,12.90
2023-09-27T23:51:09.911Z,14.10
2023-09-27T23:56:12.743Z,15.00
